Palau, PW (96940)

5:43 PM PWT on July 28, 2016 (GMT +0900)
Guam International | | Change Station

Elev 269 ft 13.48 °N, 144.80 °E | Updated 49 minutes ago

Partly Cloudy
Partly Cloudy
85 °F
Feels Like 94 °F
N
6
Wind Variable Wind from SE

Today
High -- | Low -- °F
--% Chance of Precip.
Yesterday
High -- | Low -- °F
Precip. -- in
Pressure 29.77 in
Visibility 10.0 miles
Clouds Few 2000 ft
Heat Index 94 °F
Dew Point 76 °F
Humidity 74%
Rainfall 0.02 in
Snow Depth Not available.
5:54 AM 6:22 PM
Waning Crescent, 34% visible
METAR PGUM 280754Z 13005KT 10SM FEW020 29/24 A2979 RMK AO2 SLP079 T02940244 $
Pressure 29.77 in
Visibility 10.0 miles
Clouds Few 2000 ft
Heat Index 94 °F
Dew Point 76 °F
Humidity 74%
Rainfall 0.02 in
Snow Depth Not available.
5:54 AM 6:22 PM
Waning Crescent, 34% visible
METAR PGUM 280754Z 13005KT 10SM FEW020 29/24 A2979 RMK AO2 SLP079 T02940244 $

10-Day Weather Forecast

Almanac

Astronomy

Jul. 28, 2016 Rise Set
Actual Time
Civil Twilight
Nautical Twilight
Astronomical Twilight
Moon
Length of Visible Light
Length of Day
Tomorrow will be .
, % of the Moon is Illuminated

Today's Extremes

State Highs State Lows

Community

WunderPhotos

Upload Photos

1,928,070 photos uploaded!

WunderBlog® & News

Nearby

Air Quality

  Air Quality AQ Index Pollutant
Not available.

Snow Depth

Station Depth Elevation

Earthquake Activity

City Distance Mag. Time & Date
Minimum magnitude displayed is 2.5.

Coastal Water Temperatures

Place Temperature

Stations

Nearby Weather Stations

Station Location Temp. Windchill Dew Point Humidity Wind Precip. Elev Updated Type
                   

Watches & Warnings

There are currently no watches in effect.